createdAt,value
2022-10-10T07:00:35.254Z,100.00
2022-10-10T07:05:38.445Z,100.00
2022-10-10T07:11:04.082Z,100.00
2022-10-10T07:16:08.954Z,100.00
2022-10-10T07:21:14.403Z,100.00
2022-10-10T07:26:22.038Z,100.00
2022-10-10T07:31:26.640Z,100.00
2022-10-10T07:36:30.532Z,100.00
2022-10-10T07:41:33.836Z,100.00
2022-10-10T07:46:38.815Z,100.00
2022-10-10T07:51:44.657Z,100.00
2022-10-10T07:56:47.980Z,100.00
2022-10-10T08:01:53.067Z,100.00
2022-10-10T08:06:56.488Z,100.00
2022-10-10T08:11:59.763Z,100.00
2022-10-10T08:17:05.237Z,100.00
2022-10-10T08:22:14.668Z,100.00
2022-10-10T08:27:19.357Z,100.00
2022-10-10T08:32:48.859Z,100.00
2022-10-10T08:37:56.106Z,100.00
2022-10-10T08:43:03.733Z,100.00
2022-10-10T08:48:08.516Z,100.00
2022-10-10T08:53:16.058Z,100.00
2022-10-10T08:58:23.900Z,100.00
2022-10-10T09:03:31.598Z,100.00
2022-10-10T09:08:44.832Z,99.97
2022-10-10T09:13:53.241Z,98.46
2022-10-10T09:19:07.963Z,96.58
2022-10-10T09:24:17.459Z,96.76
2022-10-10T09:29:30.138Z,95.79
2022-10-10T09:34:36.016Z,95.62
2022-10-10T09:39:45.382Z,95.52
2022-10-10T09:44:48.651Z,91.66
2022-10-10T09:49:57.148Z,91.99
2022-10-10T09:55:03.130Z,91.84
2022-10-10T10:00:25.376Z,91.12
2022-10-10T10:05:29.189Z,90.19
2022-10-10T10:10:35.922Z,92.28
2022-10-10T10:15:48.633Z,89.03
2022-10-10T10:20:52.831Z,88.67
2022-10-10T10:26:02.066Z,89.91
2022-10-10T10:31:05.989Z,89.42
2022-10-10T10:36:14.317Z,90.55
2022-10-10T10:41:23.442Z,90.14
2022-10-10T10:46:30.828Z,87.86
2022-10-10T10:51:41.333Z,85.48
2022-10-10T10:56:48.387Z,84.91
2022-10-10T11:01:57.962Z,85.03
2022-10-10T11:07:18.522Z,85.18
2022-10-10T11:12:27.857Z,85.62
2022-10-10T11:17:37.147Z,85.40
2022-10-10T11:28:11.587Z,86.01
2022-10-10T11:33:17.544Z,86.56
2022-10-10T11:38:25.070Z,86.01
2022-10-10T11:43:33.404Z,87.19
2022-10-10T11:48:41.226Z,87.55
2022-10-10T11:53:45.687Z,87.65
2022-10-10T11:58:54.409Z,87.96
2022-10-10T12:03:58.332Z,88.08
2022-10-10T12:09:07.584Z,90.32
2022-10-10T12:14:16.700Z,89.71
2022-10-10T12:19:21.438Z,89.65
2022-10-10T12:24:26.148Z,89.02
2022-10-10T12:29:43.952Z,89.83
2022-10-10T12:34:58.285Z,90.67
2022-10-10T12:40:28.892Z,89.26
2022-10-10T12:45:51.160Z,88.28
2022-10-10T12:50:57.149Z,88.43
2022-10-10T12:56:02.350Z,88.62
2022-10-10T13:01:08.011Z,88.87
2022-10-10T13:06:21.648Z,89.20
2022-10-10T13:11:24.961Z,89.27
2022-10-10T13:16:33.622Z,89.18
2022-10-10T13:21:38.846Z,89.07
2022-10-10T13:26:45.235Z,88.73
2022-10-10T13:31:48.958Z,89.34
2022-10-10T13:36:56.209Z,89.25
2022-10-10T13:41:59.787Z,90.18
2022-10-10T13:47:18.031Z,90.77
2022-10-10T13:52:23.570Z,90.83
2022-10-10T13:57:28.200Z,91.67
2022-10-10T14:02:38.679Z,91.00
2022-10-10T14:07:48.100Z,91.13
2022-10-10T14:12:53.134Z,92.16
2022-10-10T14:17:56.444Z,92.24
2022-10-10T14:28:46.533Z,93.14
2022-10-10T14:33:52.464Z,90.51
2022-10-10T14:38:57.115Z,90.41
2022-10-10T14:44:00.372Z,95.80
2022-10-10T14:49:04.687Z,93.26
2022-10-10T14:54:10.490Z,93.89
2022-10-10T14:59:18.798Z,95.49
2022-10-10T15:04:42.886Z,96.96
2022-10-10T15:15:12.737Z,98.86
2022-10-10T15:20:17.286Z,100.00
2022-10-10T15:25:22.162Z,99.51
2022-10-10T15:30:26.195Z,100.00
2022-10-10T15:35:50.228Z,100.00
2022-10-10T15:40:59.772Z,100.00
2022-10-10T15:46:03.401Z,100.00
2022-10-10T15:51:08.064Z,100.00
2022-10-10T15:56:13.693Z,100.00
2022-10-10T16:01:21.194Z,100.00
2022-10-10T16:06:26.816Z,100.00
2022-10-10T16:11:36.998Z,100.00
2022-10-10T16:16:40.396Z,100.00
2022-10-10T16:21:44.036Z,100.00
2022-10-10T16:26:49.227Z,100.00
2022-10-10T16:31:52.604Z,100.00
2022-10-10T16:36:59.685Z,100.00
2022-10-10T16:42:04.730Z,100.00
2022-10-10T16:47:10.490Z,100.00
2022-10-10T16:52:13.739Z,100.00
2022-10-10T16:57:18.534Z,100.00
2022-10-10T17:02:24.398Z,100.00
2022-10-10T17:07:28.419Z,100.00
2022-10-10T17:12:35.990Z,100.00
2022-10-10T17:17:39.378Z,100.00
2022-10-10T17:22:42.603Z,100.00
2022-10-10T17:27:49.517Z,100.00
2022-10-10T17:32:52.831Z,100.00
2022-10-10T17:37:56.248Z,100.00
2022-10-10T17:43:04.757Z,100.00
2022-10-10T17:48:09.411Z,100.00
2022-10-10T17:53:12.779Z,100.00
2022-10-10T17:58:19.489Z,100.00
2022-10-10T18:03:22.996Z,100.00
2022-10-10T18:08:26.353Z,100.00
2022-10-10T18:13:31.869Z,100.00
2022-10-10T18:18:35.897Z,100.00
2022-10-10T18:23:39.198Z,100.00
2022-10-10T18:28:44.716Z,100.00
2022-10-10T18:33:48.368Z,100.00
2022-10-10T18:38:51.720Z,100.00
2022-10-10T18:43:57.852Z,100.00
2022-10-10T18:49:02.513Z,100.00
2022-10-10T18:54:09.912Z,100.00
2022-10-10T18:59:15.993Z,100.00
2022-10-10T19:04:28.762Z,100.00
2022-10-10T19:09:34.312Z,100.00
2022-10-10T19:14:40.130Z,100.00
2022-10-10T19:19:43.500Z,100.00
2022-10-10T19:24:47.931Z,100.00
2022-10-10T19:29:52.811Z,100.00
2022-10-10T19:34:58.802Z,100.00
2022-10-10T19:40:02.214Z,100.00
2022-10-10T19:45:10.066Z,100.00
2022-10-10T19:50:13.498Z,100.00
2022-10-10T19:55:18.401Z,100.00
2022-10-10T20:00:23.469Z,100.00
2022-10-10T20:05:26.769Z,100.00
2022-10-10T20:10:30.035Z,100.00
2022-10-10T20:15:35.183Z,100.00
2022-10-10T20:20:45.413Z,100.00
2022-10-10T20:25:48.925Z,100.00
2022-10-10T20:30:56.099Z,100.00
2022-10-10T20:36:01.907Z,100.00
2022-10-10T20:41:10.478Z,100.00
2022-10-10T20:46:15.260Z,100.00
2022-10-10T20:51:18.733Z,100.00
2022-10-10T20:56:22.201Z,100.00
2022-10-10T21:01:31.684Z,100.00
2022-10-10T21:06:35.495Z,100.00
2022-10-10T21:11:39.702Z,100.00
2022-10-10T21:16:44.440Z,100.00
2022-10-10T21:21:47.991Z,100.00
2022-10-10T21:26:51.295Z,100.00
2022-10-10T21:31:55.815Z,100.00
